KTHA

Tullahoma Regional Arpt / Wm Northern Field Airport

Tullahoma, Tennessee, USA
METAR KTHA 191135Z AUTO 00000KT 10SM CLR 00/M01 A3005 RMK A01
Observed Flight Rules
Dec-19 @ 11:35 UTC (28 minutes ago) Visual Flight Rules
Visibility Clouds
10 miles
  • Clear skies
Temperatures Readings
Current 0°C / 32°F
Dewpoint -1°C / 30°F
Humidity 93%
Altimeter 30.05" Hg
Pressure 1018 hPa
Elevation 331
METAR KTHA 191135Z AUTO 00000KT 10SM CLR 00/M01 A3005 RMK A01
Observed Flight Rules
Dec-19 @ 11:35 UTC
(28 minutes ago)
VFR
Clouds
  • Clear skies
Temperature Dewpoint
0°C / 32°F -1°C / 30°F
Humidity Altimeter Pressure
93% 30.05" Hg 1018 hPa